Time;durP1;ratioP1;P1;durP2;ratioP2;P2;SDS_P1;SDS_P2;PMS_P1;PMS_P2;Temp;Humidity;BMP_temperature;BMP_pressure;BME280_temperature;BME280_humidity;BME280_pressure;Samples;Min_cycle;Max_cycle;Signal;HPM_P1;HPM_P2
2022/06/27 00:00:03;;;;;;;7.82;6.45;;;26.30;52.20;;;;;;5091588;27;44696;-86
2022/06/27 00:02:30;;;;;;;7.88;6.07;;;26.30;52.10;;;;;;5090976;27;45573;-85
2022/06/27 00:04:57;;;;;;;7.25;6.10;;;26.30;52.20;;;;;;5091389;27;44663;-85
2022/06/27 00:07:23;;;;;;;8.38;5.75;;;26.30;52.00;;;;;;5091257;27;44684;-87
2022/06/27 00:09:50;;;;;;;7.10;5.90;;;26.20;52.10;;;;;;5080414;27;44730;-86
2022/06/27 00:12:19;;;;;;;7.03;6.05;;;26.20;52.10;;;;;;5071139;28;47050;-85
2022/06/27 00:14:45;;;;;;;6.80;6.10;;;26.20;52.20;;;;;;5071299;28;44796;-87
2022/06/27 00:17:12;;;;;;;8.25;6.28;;;26.20;52.20;;;;;;5068628;28;44777;-87
2022/06/27 00:19:39;;;;;;;7.57;6.40;;;26.20;52.20;;;;;;5073380;28;44747;-86
2022/06/27 00:22:06;;;;;;;6.82;5.97;;;26.20;52.00;;;;;;5074441;28;47294;-87
2022/06/27 00:24:33;;;;;;;8.75;6.07;;;26.20;52.90;;;;;;5074449;28;44746;-86
2022/06/27 00:27:00;;;;;;;8.23;6.95;;;26.20;52.10;;;;;;5064622;28;45270;-87
2022/06/27 00:29:28;;;;;;;7.07;6.32;;;26.10;52.20;;;;;;5051299;28;45293;-86
2022/06/27 00:31:55;;;;;;;7.70;6.50;;;26.10;52.20;;;;;;5050815;28;45635;-86
2022/06/27 00:34:22;;;;;;;9.50;6.85;;;26.10;52.20;;;;;;5050824;28;45250;-86
2022/06/27 00:36:49;;;;;;;7.57;6.22;;;26.10;52.20;;;;;;5050914;28;45245;-87
2022/06/27 00:39:16;;;;;;;7.05;5.90;;;26.10;52.10;;;;;;5051102;28;45307;-87
2022/06/27 00:41:43;;;;;;;9.45;6.57;;;26.10;52.20;;;;;;5047337;28;45421;-86
2022/06/27 00:44:10;;;;;;;9.38;6.68;;;26.10;52.40;;;;;;5049915;28;44683;-87
2022/06/27 00:46:41;;;;;;;8.27;6.57;;;26.10;52.30;;;;;;5050285;28;45157;-86
2022/06/27 00:49:08;;;;;;;8.95;6.40;;;26.00;52.30;;;;;;5061788;28;45491;-86
2022/06/27 00:51:35;;;;;;;8.73;6.72;;;26.00;52.20;;;;;;5090409;28;45652;-86
2022/06/27 00:54:02;;;;;;;7.78;6.28;;;26.00;52.20;;;;;;5089918;28;45205;-86
2022/06/27 00:56:29;;;;;;;7.43;6.35;;;26.00;52.40;;;;;;5091011;28;45217;-86
2022/06/27 00:58:55;;;;;;;8.23;6.55;;;26.00;52.40;;;;;;5088090;28;45448;-86
2022/06/27 01:01:22;;;;;;;7.28;6.47;;;26.00;52.40;;;;;;5090232;28;46424;-86
2022/06/27 01:03:50;;;;;;;6.72;6.03;;;26.00;52.40;;;;;;5087384;28;45371;-86
2022/06/27 01:06:17;;;;;;;9.00;6.35;;;25.90;52.40;;;;;;5089771;28;45200;-86
2022/06/27 01:08:44;;;;;;;8.48;6.07;;;25.90;52.50;;;;;;5088051;28;45259;-87
2022/06/27 01:11:12;;;;;;;6.40;5.43;;;25.90;52.40;;;;;;5069468;28;46681;-85
2022/06/27 01:13:39;;;;;;;8.38;6.05;;;25.90;52.50;;;;;;5069849;28;45286;-86
2022/06/27 01:16:06;;;;;;;7.90;6.38;;;25.90;52.50;;;;;;5069373;28;45274;-87
2022/06/27 01:18:33;;;;;;;6.68;5.97;;;25.80;52.50;;;;;;5070223;28;45205;-86
2022/06/27 01:21:01;;;;;;;7.20;6.07;;;25.80;52.40;;;;;;5066622;28;45659;-86
2022/06/27 01:23:30;;;;;;;6.78;6.07;;;25.80;52.60;;;;;;5069382;28;45419;-85
2022/06/27 01:25:57;;;;;;;7.60;6.10;;;25.80;52.50;;;;;;5066730;28;45328;-86
2022/06/27 01:28:24;;;;;;;6.22;5.63;;;25.80;52.60;;;;;;5067240;28;45194;-86
2022/06/27 01:30:50;;;;;;;7.38;5.70;;;25.80;53.20;;;;;;5068139;28;45824;-87
2022/06/27 01:33:17;;;;;;;7.22;5.72;;;25.70;52.40;;;;;;5069602;28;45337;-87
2022/06/27 01:35:44;;;;;;;6.15;5.25;;;25.70;52.50;;;;;;5069442;28;45299;-86
2022/06/27 01:38:11;;;;;;;7.75;5.45;;;25.70;52.60;;;;;;5066984;28;45178;-88
2022/06/27 01:40:39;;;;;;;6.45;5.43;;;25.70;52.70;;;;;;5069412;28;47018;-87
2022/06/27 01:43:06;;;;;;;5.90;5.30;;;25.70;52.50;;;;;;5069290;28;45310;-87
2022/06/27 01:45:33;;;;;;;5.53;4.93;;;25.70;52.70;;;;;;5069312;28;45302;-87
2022/06/27 01:48:00;;;;;;;5.82;5.22;;;25.70;52.70;;;;;;5069595;28;45233;-87
2022/06/27 01:50:27;;;;;;;6.85;5.68;;;25.60;52.60;;;;;;5069186;28;45690;-87
2022/06/27 01:52:54;;;;;;;6.07;5.00;;;25.60;52.70;;;;;;5069366;28;45343;-87
2022/06/27 01:55:21;;;;;;;5.95;4.90;;;25.60;52.90;;;;;;5068495;28;45226;-86
2022/06/27 01:57:49;;;;;;;6.28;4.93;;;25.60;52.90;;;;;;5066766;28;44826;-88
2022/06/27 02:00:17;;;;;;;5.65;4.97;;;25.60;52.80;;;;;;5066242;28;45446;-88
2022/06/27 02:02:44;;;;;;;5.88;5.28;;;25.60;52.80;;;;;;5068704;28;45225;-86
2022/06/27 02:05:11;;;;;;;5.75;4.78;;;25.60;52.70;;;;;;5069114;28;45348;-87
2022/06/27 02:07:39;;;;;;;5.53;4.93;;;25.50;52.80;;;;;;5066523;28;45387;-88
2022/06/27 02:10:07;;;;;;;6.47;4.75;;;25.50;53.00;;;;;;5052829;28;45286;-88
2022/06/27 02:12:34;;;;;;;5.28;4.57;;;25.50;52.90;;;;;;5048531;28;45220;-87
2022/06/27 02:15:02;;;;;;;5.15;4.57;;;25.50;52.90;;;;;;5045755;28;45283;-87
2022/06/27 02:17:29;;;;;;;5.93;4.93;;;25.50;53.00;;;;;;5048902;28;45431;-86
2022/06/27 02:19:56;;;;;;;4.95;4.35;;;25.50;53.00;;;;;;5047996;28;46487;-86
2022/06/27 02:22:23;;;;;;;4.75;4.00;;;25.50;53.10;;;;;;5048195;28;45338;-87
2022/06/27 02:24:50;;;;;;;4.53;4.13;;;25.50;53.20;;;;;;5045789;28;45257;-86
2022/06/27 02:27:16;;;;;;;6.05;4.50;;;25.50;53.10;;;;;;5048262;28;45410;-86
2022/06/27 02:29:43;;;;;;;5.50;4.28;;;25.50;53.20;;;;;;5045567;28;45368;-86
2022/06/27 02:32:12;;;;;;;5.30;3.85;;;25.40;53.10;;;;;;5048226;28;45304;-86
2022/06/27 02:34:38;;;;;;;4.45;3.83;;;25.40;53.20;;;;;;5048197;28;45192;-86
2022/06/27 02:37:06;;;;;;;4.70;4.05;;;25.40;53.20;;;;;;5046011;28;45242;-86
2022/06/27 02:39:34;;;;;;;4.43;3.78;;;25.40;53.20;;;;;;5048213;28;45487;-88
2022/06/27 02:42:02;;;;;;;6.63;3.83;;;25.40;53.20;;;;;;5047545;28;45209;-87
2022/06/27 02:44:29;;;;;;;4.78;4.00;;;25.40;53.20;;;;;;5045530;28;45251;-88
2022/06/27 02:46:56;;;;;;;4.97;3.80;;;25.40;53.20;;;;;;5047595;28;45393;-87
2022/06/27 02:49:24;;;;;;;4.15;3.60;;;25.40;53.30;;;;;;5061609;28;46170;-87
2022/06/27 02:52:01;;;;;;;4.88;3.28;;;25.40;53.30;;;;;;5088416;28;45288;-87
2022/06/27 02:54:33;;;;;;;3.88;3.40;;;25.30;53.10;;;;;;5088316;28;45150;-88
2022/06/27 02:57:03;;;;;;;4.15;3.47;;;25.30;53.20;;;;;;5088939;28;45292;-87
2022/06/27 02:59:34;;;;;;;3.58;3.28;;;25.40;53.20;;;;;;5088085;28;46637;-87
2022/06/27 03:02:01;;;;;;;4.30;3.40;;;25.30;53.40;;;;;;5088018;28;44741;-88
2022/06/27 03:04:29;;;;;;;3.70;3.22;;;25.30;53.40;;;;;;5087953;28;45221;-86
2022/06/27 03:06:56;;;;;;;3.67;3.33;;;25.30;53.30;;;;;;5088450;28;45490;-87
2022/06/27 03:09:22;;;;;;;4.07;3.40;;;25.30;53.40;;;;;;5080370;28;46592;-87
2022/06/27 03:11:49;;;;;;;5.28;3.30;;;25.30;53.40;;;;;;5067757;28;45300;-88
2022/06/27 03:14:16;;;;;;;3.00;2.70;;;25.30;53.50;;;;;;5067832;28;45278;-87
2022/06/27 03:16:43;;;;;;;4.25;2.90;;;25.30;53.40;;;;;;5065483;28;45301;-87
2022/06/27 03:19:10;;;;;;;3.95;2.97;;;25.30;53.50;;;;;;5067596;28;45656;-87
2022/06/27 03:21:38;;;;;;;2.92;2.72;;;25.30;53.50;;;;;;5067683;28;45252;-87
2022/06/27 03:24:06;;;;;;;3.13;2.80;;;25.20;53.40;;;;;;5064971;28;45268;-86
2022/06/27 03:26:33;;;;;;;3.50;3.20;;;25.20;53.40;;;;;;5067857;28;45178;-88
2022/06/27 03:29:02;;;;;;;2.75;2.45;;;25.20;53.40;;;;;;5067371;28;45490;-87
2022/06/27 03:31:29;;;;;;;2.97;2.75;;;25.20;53.30;;;;;;5067338;28;45273;-87
2022/06/27 03:33:55;;;;;;;3.40;2.90;;;25.20;53.40;;;;;;5067508;28;45292;-86
2022/06/27 03:36:22;;;;;;;3.38;2.70;;;25.20;53.50;;;;;;5067780;28;45142;-87
2022/06/27 03:38:51;;;;;;;4.28;2.55;;;25.20;53.50;;;;;;5067550;28;46456;-87
2022/06/27 03:41:18;;;;;;;3.08;2.70;;;25.20;53.60;;;;;;5067460;28;45290;-87
2022/06/27 03:43:45;;;;;;;2.63;2.42;;;25.20;53.70;;;;;;5066592;28;45232;-86
2022/06/27 03:46:12;;;;;;;2.85;2.65;;;25.20;53.70;;;;;;5067743;28;45178;-86
2022/06/27 03:51:23;;;;;;;2.58;2.38;;;25.10;53.60;;;;;;5064285;28;45150;-87
2022/06/27 03:53:52;;;;;;;2.40;2.20;;;25.10;53.50;;;;;;5055143;28;45316;-86
2022/06/27 03:56:19;;;;;;;2.78;2.30;;;25.10;53.60;;;;;;5050773;28;45280;-86
2022/06/27 03:58:46;;;;;;;2.50;2.30;;;25.20;53.60;;;;;;5050658;28;47274;-88
2022/06/27 04:01:13;;;;;;;2.55;2.35;;;25.10;53.60;;;;;;5050886;28;45131;-87
2022/06/27 04:03:40;;;;;;;3.55;2.70;;;25.10;53.40;;;;;;5050384;28;45403;-86
2022/06/27 04:06:07;;;;;;;2.72;2.22;;;25.10;53.50;;;;;;5051127;28;45398;-87
2022/06/27 04:08:34;;;;;;;2.47;2.22;;;25.10;53.60;;;;;;5050641;28;46887;-86
2022/06/27 04:11:02;;;;;;;2.78;2.40;;;25.10;53.60;;;;;;5063165;28;45274;-86
2022/06/27 04:13:29;;;;;;;2.10;1.90;;;25.10;53.60;;;;;;5068019;28;45261;-86
2022/06/27 04:15:56;;;;;;;2.28;2.05;;;25.10;53.60;;;;;;5070884;28;45183;-87
2022/06/27 04:18:23;;;;;;;2.22;2.03;;;25.10;53.60;;;;;;5070534;28;45449;-86
2022/06/27 04:20:50;;;;;;;2.65;2.20;;;25.10;53.60;;;;;;5067835;28;45307;-86
2022/06/27 04:23:16;;;;;;;2.05;1.80;;;25.10;54.10;;;;;;5070508;28;45222;-86
2022/06/27 04:25:43;;;;;;;4.07;2.05;;;25.00;53.60;;;;;;5070929;28;45385;-86
2022/06/27 04:28:12;;;;;;;2.47;1.98;;;25.10;53.60;;;;;;5069999;28;45311;-85
2022/06/27 04:30:40;;;;;;;2.10;1.90;;;25.00;53.50;;;;;;5070896;28;45262;-85
2022/06/27 04:33:07;;;;;;;3.03;2.00;;;25.00;53.50;;;;;;5070692;28;45210;-87
2022/06/27 04:35:34;;;;;;;2.50;1.95;;;25.00;53.60;;;;;;5070314;28;45186;-87
2022/06/27 04:38:01;;;;;;;2.30;1.90;;;25.00;53.50;;;;;;5066993;28;45560;-85
2022/06/27 04:40:28;;;;;;;2.30;2.10;;;25.00;53.50;;;;;;5070218;28;45351;-86
2022/06/27 04:42:56;;;;;;;2.40;2.10;;;25.00;53.50;;;;;;5067620;28;45352;-86
2022/06/27 04:45:25;;;;;;;1.95;1.85;;;25.00;53.50;;;;;;5070315;28;45186;-87
2022/06/27 04:47:53;;;;;;;1.80;1.70;;;25.00;53.40;;;;;;5070143;28;45723;-87
2022/06/27 04:50:21;;;;;;;1.80;1.70;;;25.00;53.40;;;;;;5070093;28;45384;-86
2022/06/27 04:52:48;;;;;;;1.90;1.70;;;25.00;53.50;;;;;;5074493;28;45258;-86
2022/06/27 04:55:15;;;;;;;2.28;1.90;;;25.00;53.50;;;;;;5070810;28;45147;-87
2022/06/27 04:57:43;;;;;;;2.15;1.75;;;25.00;53.50;;;;;;5070218;28;46642;-88
2022/06/27 05:00:11;;;;;;;2.13;1.80;;;25.00;53.50;;;;;;5069949;28;44789;-86
2022/06/27 05:02:39;;;;;;;1.95;1.70;;;25.00;53.50;;;;;;5067447;28;45447;-86
2022/06/27 05:05:08;;;;;;;2.13;1.90;;;25.00;53.60;;;;;;5070734;28;44890;-86
2022/06/27 05:07:34;;;;;;;2.00;1.90;;;25.00;53.50;;;;;;5066946;28;45748;-87
2022/06/27 05:10:02;;;;;;;1.83;1.73;;;25.00;53.40;;;;;;5069862;28;45368;-87
2022/06/27 05:12:29;;;;;;;1.70;1.60;;;24.90;53.50;;;;;;5069954;28;45205;-87
2022/06/27 05:14:55;;;;;;;2.30;1.67;;;24.90;53.40;;;;;;5070868;28;45449;-87
2022/06/27 05:17:24;;;;;;;2.10;1.90;;;24.90;53.50;;;;;;5067270;28;45427;-87
2022/06/27 05:19:52;;;;;;;2.20;2.00;;;24.90;53.40;;;;;;5069997;28;45217;-86
2022/06/27 05:22:19;;;;;;;2.13;2.03;;;24.90;53.40;;;;;;5070247;28;45195;-88
2022/06/27 05:24:48;;;;;;;1.77;1.67;;;24.90;53.40;;;;;;5070196;28;45170;-87
2022/06/27 05:27:15;;;;;;;2.17;1.70;;;24.90;53.40;;;;;;5069363;28;45457;-87
2022/06/27 05:29:42;;;;;;;1.83;1.73;;;24.90;53.40;;;;;;5069592;28;45370;-87
2022/06/27 05:32:10;;;;;;;1.75;1.65;;;24.90;53.40;;;;;;5069099;28;45198;-86
2022/06/27 05:34:37;;;;;;;1.70;1.60;;;24.90;53.40;;;;;;5069678;28;45259;-86
2022/06/27 05:37:05;;;;;;;1.92;1.75;;;24.90;53.30;;;;;;5066816;28;45386;-87
2022/06/27 05:39:33;;;;;;;2.40;1.88;;;24.90;53.30;;;;;;5069914;28;45180;-87
2022/06/27 05:42:00;;;;;;;2.10;1.90;;;24.90;53.30;;;;;;5069761;28;45238;-87
2022/06/27 05:44:27;;;;;;;2.20;2.00;;;24.90;53.30;;;;;;5070214;28;45515;-88
2022/06/27 05:46:56;;;;;;;2.03;1.77;;;24.90;53.20;;;;;;5069090;28;46153;-88
2022/06/27 05:49:24;;;;;;;2.10;1.90;;;24.90;53.20;;;;;;5070619;28;45333;-88
2022/06/27 05:51:51;;;;;;;2.60;2.20;;;24.90;53.20;;;;;;5069889;28;45198;-88
2022/06/27 05:54:20;;;;;;;3.28;2.00;;;24.90;53.30;;;;;;5052491;28;44795;-86
2022/06/27 05:56:48;;;;;;;2.38;2.00;;;24.90;53.30;;;;;;5049030;28;45484;-86
2022/06/27 05:59:16;;;;;;;2.90;2.30;;;24.90;53.60;;;;;;5049585;28;45205;-88
2022/06/27 06:01:43;;;;;;;3.35;2.15;;;24.90;53.30;;;;;;5049513;28;44731;-88
2022/06/27 06:04:10;;;;;;;2.40;2.20;;;24.90;53.30;;;;;;5049503;28;45368;-88
2022/06/27 06:06:38;;;;;;;3.35;2.42;;;24.90;53.20;;;;;;5049430;28;45292;-87
2022/06/27 06:09:05;;;;;;;1.98;1.80;;;24.90;53.20;;;;;;5049611;28;45341;-87
2022/06/27 06:11:35;;;;;;;2.95;2.55;;;24.90;53.20;;;;;;5066913;28;45210;-86
2022/06/27 06:14:04;;;;;;;2.97;2.30;;;24.90;53.30;;;;;;5070248;28;45269;-85
2022/06/27 06:16:31;;;;;;;2.30;2.10;;;24.90;53.20;;;;;;5068840;28;46912;-87
2022/06/27 06:18:59;;;;;;;2.47;2.28;;;24.90;53.80;;;;;;5069972;28;45338;-87
2022/06/27 06:21:26;;;;;;;2.65;2.45;;;24.90;53.10;;;;;;5069982;28;44663;-88
2022/06/27 06:23:53;;;;;;;4.47;2.47;;;24.90;53.10;;;;;;5066631;28;45120;-86
2022/06/27 06:26:20;;;;;;;3.75;2.75;;;24.90;53.10;;;;;;5068749;28;47846;-87
2022/06/27 06:28:49;;;;;;;3.83;2.40;;;24.90;53.00;;;;;;5068607;28;46358;-87
2022/06/27 06:31:21;;;;;;;3.55;2.15;;;24.90;53.00;;;;;;5068821;28;45269;-86
2022/06/27 06:33:50;;;;;;;3.28;2.90;;;25.00;53.00;;;;;;5069418;28;45277;-87
2022/06/27 06:36:17;;;;;;;3.28;2.45;;;24.90;53.10;;;;;;5068860;28;45542;-87
2022/06/27 06:38:44;;;;;;;2.65;2.45;;;24.90;53.00;;;;;;5068384;28;45182;-86
2022/06/27 06:41:11;;;;;;;3.20;2.60;;;24.90;53.00;;;;;;5066133;28;45186;-87
2022/06/27 06:43:38;;;;;;;4.05;3.03;;;24.90;53.00;;;;;;5068480;28;45199;-86
2022/06/27 06:46:06;;;;;;;3.05;2.70;;;24.90;53.00;;;;;;5068797;28;47609;-85
2022/06/27 06:48:33;;;;;;;3.40;3.10;;;24.90;53.00;;;;;;5068526;28;45365;-87
2022/06/27 06:51:00;;;;;;;3.78;2.88;;;24.90;53.10;;;;;;5066126;28;45290;-87
2022/06/27 06:53:27;;;;;;;4.47;2.90;;;24.90;53.00;;;;;;5057020;28;44720;-87
2022/06/27 06:55:57;;;;;;;2.92;2.60;;;24.90;53.00;;;;;;5046889;28;46837;-87
2022/06/27 06:58:25;;;;;;;3.17;2.80;;;24.90;53.00;;;;;;5048642;28;45295;-88
2022/06/27 07:00:52;;;;;;;2.80;2.60;;;24.90;53.00;;;;;;5048382;28;45297;-87
2022/06/27 07:03:21;;;;;;;3.70;2.75;;;24.90;52.90;;;;;;5048516;28;45296;-87
2022/06/27 07:05:48;;;;;;;2.70;2.50;;;24.90;52.90;;;;;;5048160;28;45234;-89
2022/06/27 07:08:15;;;;;;;4.03;2.67;;;24.90;52.90;;;;;;5048492;28;45205;-87
2022/06/27 07:10:42;;;;;;;2.72;2.53;;;24.90;52.90;;;;;;5055393;28;45233;-88
2022/06/27 07:13:10;;;;;;;3.28;2.97;;;25.00;52.90;;;;;;5068772;28;45307;-88
2022/06/27 07:15:38;;;;;;;3.70;2.85;;;24.90;52.80;;;;;;5068066;28;46703;-86
2022/06/27 07:18:05;;;;;;;2.63;2.42;;;25.00;52.80;;;;;;5067687;28;45288;-87
2022/06/27 07:20:34;;;;;;;2.72;2.53;;;25.00;52.90;;;;;;5068036;28;45195;-87
2022/06/27 07:23:01;;;;;;;3.22;2.63;;;24.90;52.80;;;;;;5068248;28;45337;-87
2022/06/27 07:25:28;;;;;;;2.65;2.45;;;24.90;52.80;;;;;;5068054;28;45389;-87
2022/06/27 07:27:55;;;;;;;2.67;2.47;;;24.90;52.90;;;;;;5068043;28;45941;-87
2022/06/27 07:30:22;;;;;;;3.38;2.40;;;24.90;53.40;;;;;;5067624;28;45201;-87
2022/06/27 07:32:49;;;;;;;2.60;2.40;;;24.90;52.90;;;;;;5069078;28;45363;-87
2022/06/27 07:35:17;;;;;;;2.60;2.40;;;24.90;52.90;;;;;;5067150;28;45484;-87
2022/06/27 07:37:48;;;;;;;2.80;2.53;;;24.90;52.90;;;;;;5067543;28;45343;-88
2022/06/27 07:40:15;;;;;;;2.45;2.25;;;24.90;52.90;;;;;;5067807;28;45236;-87
2022/06/27 07:42:42;;;;;;;3.10;2.70;;;24.90;53.00;;;;;;5065430;28;45363;-88
2022/06/27 07:45:11;;;;;;;2.88;2.67;;;24.90;53.00;;;;;;5066931;28;45305;-87
2022/06/27 07:47:39;;;;;;;3.20;2.88;;;24.90;52.90;;;;;;5067650;28;45255;-87
2022/06/27 07:50:07;;;;;;;2.95;2.35;;;25.00;53.50;;;;;;5066642;28;45335;-87
2022/06/27 07:53:11;;;;;;;2.78;2.50;;;25.00;52.80;;;;;;5065776;28;45285;-88
2022/06/27 07:55:24;;;;;;;2.15;1.95;;;25.00;53.20;;;;;;5066142;28;46325;-88
2022/06/27 07:57:52;;;;;;;2.25;2.05;;;24.90;58.00;;;;;;5068100;28;44752;-88
2022/06/27 08:00:19;;;;;;;1.58;1.48;;;24.80;59.50;;;;;;5065206;28;45193;-88
2022/06/27 08:02:46;;;;;;;3.58;2.08;;;24.80;59.90;;;;;;5069043;28;45233;-87
2022/06/27 08:05:13;;;;;;;1.92;1.63;;;24.70;59.70;;;;;;5068558;28;45348;-88
2022/06/27 08:07:40;;;;;;;1.70;1.60;;;24.70;60.30;;;;;;5065570;28;45284;-89
2022/06/27 08:10:09;;;;;;;1.67;1.48;;;24.70;60.80;;;;;;5043919;28;45283;-87
2022/06/27 08:12:37;;;;;;;1.48;1.38;;;24.70;61.40;;;;;;5047810;28;45111;-89
2022/06/27 08:15:06;;;;;;;3.20;1.50;;;24.70;61.00;;;;;;5047443;28;46436;-87
2022/06/27 08:17:33;;;;;;;2.33;1.30;;;24.70;61.70;;;;;;5047522;28;45312;-88
2022/06/27 08:20:00;;;;;;;2.33;1.30;;;24.70;61.40;;;;;;5047076;28;45210;-87
2022/06/27 08:22:30;;;;;;;2.95;1.45;;;24.70;61.40;;;;;;5045083;28;45273;-88
2022/06/27 08:24:57;;;;;;;1.40;1.30;;;24.70;61.90;;;;;;5047402;28;45852;-88
2022/06/27 08:27:26;;;;;;;1.42;1.10;;;24.70;62.50;;;;;;5047971;28;45289;-87
2022/06/27 08:29:54;;;;;;;2.50;1.30;;;24.70;62.40;;;;;;5047876;28;45233;-88
2022/06/27 08:32:21;;;;;;;2.20;1.40;;;24.70;62.70;;;;;;5047998;28;45285;-87
2022/06/27 08:34:54;;;;;;;1.75;1.25;;;24.70;61.70;;;;;;5047520;28;45351;-88
2022/06/27 08:37:23;;;;;;;2.15;1.17;;;24.80;61.70;;;;;;5047768;28;45353;-86
2022/06/27 08:39:50;;;;;;;2.15;1.13;;;24.80;61.80;;;;;;5047995;28;45206;-88
2022/06/27 08:42:17;;;;;;;1.35;1.25;;;24.80;61.90;;;;;;5051192;28;45432;-88
2022/06/27 08:44:44;;;;;;;0.93;0.90;;;24.70;61.10;;;;;;5052046;28;45240;-88
2022/06/27 08:47:14;;;;;;;2.05;1.00;;;24.80;60.90;;;;;;5050944;28;45221;-89
2022/06/27 08:49:41;;;;;;;1.10;1.00;;;24.80;60.90;;;;;;5073078;28;45131;-88
2022/06/27 08:52:09;;;;;;;1.20;0.90;;;24.80;60.70;;;;;;5091628;28;45544;-89
2022/06/27 08:54:37;;;;;;;0.95;0.95;;;24.90;60.80;;;;;;5092155;28;45648;-88
2022/06/27 08:57:05;;;;;;;0.80;0.80;;;24.90;60.40;;;;;;5095346;28;45335;-87
2022/06/27 08:59:32;;;;;;;1.23;0.90;;;24.90;59.90;;;;;;5091341;28;45163;-87
2022/06/27 09:01:59;;;;;;;1.15;1.05;;;25.00;60.10;;;;;;5091551;28;45445;-87
2022/06/27 09:04:28;;;;;;;1.98;1.02;;;25.00;60.80;;;;;;5090305;28;45442;-87
2022/06/27 09:06:56;;;;;;;0.95;0.95;;;25.00;60.70;;;;;;5090325;28;45396;-87
2022/06/27 09:09:24;;;;;;;1.42;0.93;;;25.00;60.50;;;;;;5083673;28;45114;-87
2022/06/27 09:11:52;;;;;;;0.80;0.80;;;25.00;60.50;;;;;;5070822;28;45336;-87
2022/06/27 09:14:33;;;;;;;2.25;1.20;;;24.90;60.40;;;;;;5069690;28;45528;-87
2022/06/27 09:17:02;;;;;;;1.48;0.90;;;24.90;61.50;;;;;;5070555;28;45335;-87
2022/06/27 09:19:46;;;;;;;1.20;1.10;;;24.90;61.10;;;;;;5069446;28;45294;-88
2022/06/27 09:22:15;;;;;;;1.92;1.20;;;24.90;61.30;;;;;;5070413;28;45397;-86
2022/06/27 09:24:58;;;;;;;1.02;1.02;;;24.90;60.90;;;;;;5069716;28;47178;-84
2022/06/27 09:27:39;;;;;;;4.05;1.17;;;24.90;60.80;;;;;;5065041;28;45374;-87
2022/06/27 09:30:24;;;;;;;1.05;0.93;;;24.90;61.50;;;;;;5069427;28;45324;-86
2022/06/27 09:32:52;;;;;;;1.23;0.90;;;24.90;61.30;;;;;;5050179;28;45503;-87
2022/06/27 09:35:24;;;;;;;1.77;0.93;;;24.90;61.20;;;;;;5061400;28;46546;-88
2022/06/27 09:37:52;;;;;;;0.80;0.80;;;24.90;60.60;;;;;;5062767;28;45333;-87
2022/06/27 09:40:19;;;;;;;0.82;0.80;;;24.90;59.90;;;;;;5063906;28;45401;-86
2022/06/27 09:42:46;;;;;;;1.58;0.95;;;25.00;59.30;;;;;;5069604;28;45520;-86
2022/06/27 09:45:13;;;;;;;0.63;0.63;;;25.00;59.10;;;;;;5069378;28;46939;-87
2022/06/27 09:47:40;;;;;;;0.70;0.70;;;25.00;59.10;;;;;;5070048;28;44616;-88
2022/06/27 09:50:08;;;;;;;0.88;0.88;;;25.00;58.80;;;;;;5067574;28;45412;-87
2022/06/27 09:52:36;;;;;;;0.80;0.80;;;25.00;59.10;;;;;;5053732;28;45381;-87
2022/06/27 09:55:03;;;;;;;0.73;0.73;;;25.00;59.40;;;;;;5051146;28;46630;-88
2022/06/27 09:57:30;;;;;;;0.75;0.65;;;25.00;58.80;;;;;;5051390;28;45390;-87
2022/06/27 09:59:57;;;;;;;0.70;0.70;;;25.00;58.80;;;;;;5057674;28;45226;-88
2022/06/27 10:02:24;;;;;;;1.58;0.70;;;25.00;58.80;;;;;;5072787;28;44869;-88
2022/06/27 10:04:52;;;;;;;2.67;0.70;;;25.00;58.20;;;;;;5072711;28;45561;-87
2022/06/27 10:07:19;;;;;;;0.80;0.80;;;25.00;58.10;;;;;;5072608;28;44675;-86
2022/06/27 10:09:52;;;;;;;2.13;0.60;;;25.00;58.80;;;;;;5072147;28;44799;-87
2022/06/27 10:12:37;;;;;;;0.80;0.80;;;25.00;58.10;;;;;;5074750;28;44743;-88
2022/06/27 10:15:22;;;;;;;1.40;0.50;;;25.00;58.20;;;;;;5074195;28;47331;-85
2022/06/27 10:17:54;;;;;;;0.95;0.60;;;25.10;58.00;;;;;;5074802;28;44677;-86
2022/06/27 10:20:21;;;;;;;1.02;0.90;;;25.10;58.80;;;;;;5072575;28;44680;-86
2022/06/27 10:22:49;;;;;;;2.70;0.80;;;25.10;58.20;;;;;;5073047;28;44719;-84
2022/06/27 10:25:35;;;;;;;0.75;0.60;;;25.10;58.10;;;;;;5072049;28;45038;-87
2022/06/27 10:28:18;;;;;;;0.82;0.80;;;25.10;58.70;;;;;;5072434;28;44703;-86
2022/06/27 10:30:45;;;;;;;1.25;0.90;;;25.10;58.30;;;;;;5072195;28;44731;-87
2022/06/27 10:33:46;;;;;;;1.05;0.75;;;25.10;58.40;;;;;;5077876;28;44756;-87
2022/06/27 10:36:16;;;;;;;1.27;0.60;;;25.20;58.70;;;;;;5004787;28;45448;-87
2022/06/27 10:38:48;;;;;;;0.85;0.60;;;25.20;58.60;;;;;;5067366;28;45014;-88
2022/06/27 10:41:38;;;;;;;1.02;0.95;;;25.20;58.50;;;;;;5083786;28;44721;-87
2022/06/27 10:44:06;;;;;;;0.68;0.68;;;25.20;58.40;;;;;;5069106;28;44874;-86
2022/06/27 10:46:41;;;;;;;0.75;0.75;;;25.30;58.20;;;;;;5057953;28;45374;-86
2022/06/27 10:49:21;;;;;;;0.88;0.70;;;25.30;58.30;;;;;;5050297;28;45400;-88
2022/06/27 10:51:48;;;;;;;0.63;0.60;;;25.30;58.00;;;;;;5066516;28;45436;-87
2022/06/27 10:54:16;;;;;;;0.65;0.65;;;25.30;57.90;;;;;;5053648;28;45266;-87
2022/06/27 10:56:45;;;;;;;0.90;0.60;;;25.30;57.60;;;;;;5049715;28;45315;-86
2022/06/27 10:59:54;;;;;;;0.70;0.70;;;25.30;57.50;;;;;;5047819;28;45397;-86
2022/06/27 11:02:21;;;;;;;0.77;0.77;;;25.30;58.20;;;;;;5028425;28;45211;-86
2022/06/27 11:04:48;;;;;;;0.70;0.70;;;25.30;58.10;;;;;;5048481;28;45564;-88
2022/06/27 11:07:15;;;;;;;0.70;0.70;;;25.30;57.50;;;;;;5047789;28;45481;-86
2022/06/27 11:09:43;;;;;;;0.65;0.65;;;25.30;57.60;;;;;;5047700;28;45325;-87
2022/06/27 11:12:11;;;;;;;1.85;0.75;;;25.30;57.60;;;;;;5048302;28;45420;-86
2022/06/27 11:14:49;;;;;;;1.02;0.90;;;25.30;57.30;;;;;;5048224;28;45234;-86
2022/06/27 11:17:33;;;;;;;0.70;0.70;;;25.30;57.30;;;;;;5045223;28;45542;-87
2022/06/27 11:20:11;;;;;;;0.70;0.70;;;25.30;57.30;;;;;;5048014;28;45575;-88
2022/06/27 11:22:38;;;;;;;0.70;0.70;;;25.30;57.20;;;;;;5048368;28;45254;-85
2022/06/27 11:25:06;;;;;;;0.80;0.80;;;25.30;57.20;;;;;;5047687;28;45413;-88
2022/06/27 11:27:54;;;;;;;1.70;0.55;;;25.30;57.40;;;;;;5047784;28;46657;-86
2022/06/27 11:33:13;;;;;;;0.82;0.82;;;25.20;57.10;;;;;;5048062;28;45180;-87
2022/06/27 11:35:40;;;;;;;0.60;0.60;;;25.20;57.10;;;;;;5047591;28;45237;-86
2022/06/27 11:38:07;;;;;;;0.98;0.70;;;25.20;57.30;;;;;;5047095;28;46962;-85
2022/06/27 11:40:34;;;;;;;0.68;0.68;;;25.20;57.20;;;;;;5047432;28;45373;-86
2022/06/27 11:43:03;;;;;;;2.15;0.85;;;25.20;57.30;;;;;;5047343;28;45263;-85
2022/06/27 11:45:39;;;;;;;0.60;0.60;;;25.20;57.40;;;;;;5047309;28;45238;-86
2022/06/27 11:48:12;;;;;;;0.60;0.60;;;25.20;57.00;;;;;;5044734;28;46310;-88
2022/06/27 11:50:39;;;;;;;0.82;0.68;;;25.30;56.70;;;;;;5046905;28;45408;-87
2022/06/27 11:53:06;;;;;;;0.60;0.50;;;25.30;56.70;;;;;;5047284;28;45247;-87
2022/06/27 11:55:33;;;;;;;1.75;0.80;;;25.30;56.50;;;;;;5047786;28;45293;-85
2022/06/27 11:58:00;;;;;;;0.70;0.70;;;25.40;56.30;;;;;;5047382;28;45865;-87
2022/06/27 12:00:29;;;;;;;0.90;0.80;;;25.40;56.20;;;;;;5047661;28;45138;-87
2022/06/27 12:03:02;;;;;;;1.00;0.90;;;25.40;56.00;;;;;;5045004;28;45280;-86
2022/06/27 12:05:29;;;;;;;0.70;0.70;;;25.40;55.90;;;;;;5047993;28;45174;-86
2022/06/27 12:07:58;;;;;;;0.75;0.75;;;25.50;56.00;;;;;;5046656;28;45377;-85
2022/06/27 12:10:41;;;;;;;0.85;0.85;;;25.50;55.50;;;;;;5046994;28;44814;-87
2022/06/27 12:13:09;;;;;;;2.17;0.70;;;25.50;55.50;;;;;;5046402;28;45425;-87
2022/06/27 12:15:38;;;;;;;1.48;0.70;;;25.50;55.20;;;;;;5048698;28;45313;-86
2022/06/27 12:18:07;;;;;;;0.85;0.52;;;25.50;55.20;;;;;;5050071;28;46641;-85
2022/06/27 12:20:34;;;;;;;1.17;0.60;;;25.50;54.90;;;;;;5050521;28;45348;-90
2022/06/27 12:23:01;;;;;;;0.98;0.65;;;25.50;54.50;;;;;;5051194;28;45277;-89
2022/06/27 12:25:29;;;;;;;0.60;0.60;;;25.50;54.20;;;;;;5051146;28;45284;-88
2022/06/27 12:27:56;;;;;;;0.57;0.57;;;25.50;53.70;;;;;;5050023;28;45385;-87
2022/06/27 12:30:23;;;;;;;0.65;0.65;;;25.50;53.60;;;;;;5049302;28;45344;-88
2022/06/27 12:32:51;;;;;;;0.75;0.75;;;25.50;53.60;;;;;;5047315;28;45343;-88
2022/06/27 12:35:18;;;;;;;0.65;0.60;;;25.50;53.50;;;;;;5048000;28;45182;-88
2022/06/27 12:37:45;;;;;;;0.70;0.70;;;25.50;53.30;;;;;;5049929;28;45349;-88
2022/06/27 12:40:12;;;;;;;1.63;0.80;;;25.60;53.40;;;;;;5049956;28;45212;-87
2022/06/27 12:42:38;;;;;;;0.50;0.50;;;25.60;53.30;;;;;;5049822;28;45450;-86
2022/06/27 12:45:06;;;;;;;1.55;0.60;;;25.60;53.20;;;;;;5047541;28;45423;-87
2022/06/27 12:47:33;;;;;;;4.32;0.98;;;25.60;53.10;;;;;;5047299;28;45189;-89
2022/06/27 12:50:02;;;;;;;1.20;0.63;;;25.60;52.60;;;;;;5075075;28;45449;-88
2022/06/27 12:52:28;;;;;;;1.55;0.70;;;25.70;52.70;;;;;;5093338;28;45438;-87
2022/06/27 12:54:55;;;;;;;0.70;0.70;;;25.80;52.20;;;;;;5092077;28;45296;-89
2022/06/27 12:57:22;;;;;;;0.65;0.55;;;25.80;52.00;;;;;;5087621;28;46295;-89
2022/06/27 12:59:49;;;;;;;0.70;0.70;;;25.80;51.80;;;;;;5090271;28;44719;-88